Time;durP1;ratioP1;P1;durP2;ratioP2;P2;SDS_P1;SDS_P2;PMS_P1;PMS_P2;Temp;Humidity;BMP_temperature;BMP_pressure;BME280_temperature;BME280_humidity;BME280_pressure;Samples;Min_cycle;Max_cycle;Signal;HPM_P1;HPM_P2
2022/09/15 00:01:13;;;;;;;;;;;;;;;14.26;83.77;100604.50;5113438;28;19969;-48
2022/09/15 00:03:39;;;;;;;;;;;;;;;14.23;83.75;100602.09;5111327;27;20551;-50
2022/09/15 00:06:04;;;;;;;;;;;;;;;14.23;83.67;100610.97;5133801;27;19967;-51
2022/09/15 00:08:30;;;;;;;;;;;;;;;14.22;83.38;100601.25;5132028;27;19915;-48
2022/09/15 00:11:16;;;;;;;;;;;;;;;14.19;84.01;100603.34;5123652;27;20282;-49
2022/09/15 00:13:41;;;;;;;;;;;;;;;14.17;83.77;100603.44;5131242;27;19922;-49
2022/09/15 00:16:07;;;;;;;;;;;;;;;14.19;84.16;100597.97;5115393;27;19990;-50
2022/09/15 00:18:33;;;;;;;;;;;;;;;14.17;83.69;100598.09;5114021;27;19923;-48
2022/09/15 00:20:59;;;;;;;;;;;;;;;14.17;83.73;100607.94;5133339;27;19912;-48
2022/09/15 00:23:24;;;;;;;;;;;;;;;14.15;nan;100610.75;5119922;27;20301;-51
2022/09/15 00:25:51;;;;;;;;;;;;;;;14.12;83.65;100602.13;5130776;27;19912;-49
2022/09/15 00:28:17;;;;;;;;;;;;;;;14.10;83.53;100596.91;5131182;27;19923;-51
2022/09/15 00:30:44;;;;;;;;;;;;;;;14.09;84.22;100590.72;5132120;27;19922;-48
2022/09/15 00:33:10;;;;;;;;;;;;;;;14.07;83.69;100591.81;5131256;27;19916;-50
2022/09/15 00:35:39;;;;;;;;;;;;;;;14.05;83.79;100583.06;5127572;27;20397;-52
2022/09/15 00:38:05;;;;;;;;;;;;;;;14.04;83.54;100586.72;5082894;27;19919;-51
2022/09/15 00:40:30;;;;;;;;;;;;;;;14.01;83.85;100585.16;5113522;27;19922;-50
2022/09/15 00:42:55;;;;;;;;;;;;;;;14.03;83.60;100585.00;5129506;27;19919;-51
2022/09/15 00:45:21;;;;;;;;;;;;;;;14.02;84.58;100589.50;5131780;27;20297;-51
2022/09/15 00:47:46;;;;;;;;;;;;;;;14.02;84.20;100594.00;5133232;27;19911;-49
2022/09/15 00:50:13;;;;;;;;;;;;;;;14.01;84.58;100590.50;5111488;27;20014;-51
2022/09/15 00:52:48;;;;;;;;;;;;;;;14.04;84.45;100584.88;5111517;27;19964;-51
2022/09/15 00:55:16;;;;;;;;;;;;;;;14.08;84.71;100590.84;5109150;27;20317;-50
2022/09/15 00:58:02;;;;;;;;;;;;;;;14.10;84.35;100594.25;5129628;27;19920;-48
2022/09/15 01:00:28;;;;;;;;;;;;;;;14.12;84.72;100589.63;5132373;27;19927;-49
2022/09/15 01:02:55;;;;;;;;;;;;;;;14.14;84.91;100590.31;5101533;28;19976;-49
2022/09/15 01:05:27;;;;;;;;;;;;;;;14.15;85.34;100597.41;5127027;28;19964;-49
2022/09/15 01:07:53;;;;;;;;;;;;;;;14.15;85.22;100593.84;5129247;28;20421;-47
2022/09/15 01:10:22;;;;;;;;;;;;;;;14.16;85.51;100592.88;5127298;27;19916;-50
2022/09/15 01:12:47;;;;;;;;;;;;;;;14.15;84.22;100594.72;5112541;28;20015;-50
2022/09/15 01:15:13;;;;;;;;;;;;;;;14.15;84.79;100588.50;5112503;28;19959;-51
2022/09/15 01:17:50;;;;;;;;;;;;;;;14.15;84.80;100591.16;5112556;28;19938;-47
2022/09/15 01:20:18;;;;;;;;;;;;;;;14.13;84.24;100591.31;5127108;28;19915;-50
2022/09/15 01:22:43;;;;;;;;;;;;;;;14.13;85.46;100583.28;5122995;28;19915;-50
2022/09/15 01:25:09;;;;;;;;;;;;;;;14.12;85.90;100580.72;5127786;28;20361;-52
2022/09/15 01:27:34;;;;;;;;;;;;;;;14.12;86.25;100586.94;5127355;28;20396;-50
2022/09/15 01:29:59;;;;;;;;;;;;;;;14.13;85.98;100588.63;5129189;28;20006;-49
2022/09/15 01:35:12;;;;;;;;;;;;;;;14.20;85.79;100581.78;5131237;28;19963;-52
2022/09/15 01:37:42;;;;;;;;;;;;;;;14.22;86.16;100585.19;5125623;28;19927;-50
2022/09/15 01:40:08;;;;;;;;;;;;;;;14.22;85.93;100576.34;5129342;28;19916;-50
2022/09/15 01:42:34;;;;;;;;;;;;;;;14.24;85.40;100582.41;5130254;28;19984;-50
2022/09/15 01:45:06;;;;;;;;;;;;;;;14.24;85.77;100587.75;5131169;28;19919;-52
2022/09/15 01:47:32;;;;;;;;;;;;;;;14.24;85.49;100585.94;5110502;28;19963;-50
2022/09/15 01:50:12;;;;;;;;;;;;;;;14.23;85.66;100586.03;5125737;28;19912;-50
2022/09/15 01:52:41;;;;;;;;;;;;;;;14.22;85.26;100582.53;5093257;28;19975;-51
2022/09/15 01:55:21;;;;;;;;;;;;;;;14.22;85.29;100584.34;5125902;28;19912;-49
2022/09/15 01:57:46;;;;;;;;;;;;;;;14.20;85.45;100594.31;5111882;28;19915;-50
2022/09/15 02:00:12;;;;;;;;;;;;;;;14.16;85.08;100592.88;5122224;28;20382;-49
2022/09/15 02:02:44;;;;;;;;;;;;;;;14.12;85.22;100586.94;5104752;28;20278;-48
2022/09/15 02:05:10;;;;;;;;;;;;;;;14.09;85.13;100593.41;5120136;28;19923;-49
2022/09/15 02:08:05;;;;;;;;;;;;;;;14.07;84.95;100589.16;5113636;28;19912;-51
2022/09/15 02:10:36;;;;;;;;;;;;;;;14.07;85.27;100591.81;5124935;27;20362;-48
2022/09/15 02:13:15;;;;;;;;;;;;;;;14.07;85.02;100583.78;5132670;28;19911;-48
2022/09/15 02:15:52;;;;;;;;;;;;;;;14.07;84.81;100586.47;5108445;28;19915;-49
2022/09/15 02:18:33;;;;;;;;;;;;;;;14.06;85.67;100585.63;5128726;28;19920;-51
2022/09/15 02:21:13;;;;;;;;;;;;;;;14.03;85.53;100583.19;5130216;27;19916;-50
2022/09/15 02:23:44;;;;;;;;;;;;;;;14.02;85.23;100580.63;5115091;27;19915;-51
2022/09/15 02:26:12;;;;;;;;;;;;;;;14.03;85.06;100580.53;5125016;27;19916;-50
2022/09/15 02:28:39;;;;;;;;;;;;;;;14.01;85.22;100577.13;5119549;27;20385;-51
2022/09/15 02:31:07;;;;;;;;;;;;;;;14.00;85.50;100575.44;5115480;28;19954;-50
2022/09/15 02:33:34;;;;;;;;;;;;;;;14.01;85.50;100584.31;5130066;27;19923;-50
2022/09/15 02:36:00;;;;;;;;;;;;;;;13.99;85.63;100580.88;5129310;27;19924;-52
2022/09/15 02:38:28;;;;;;;;;;;;;;;13.98;85.66;100579.19;5105027;27;19923;-49
2022/09/15 02:40:54;;;;;;;;;;;;;;;13.98;85.22;100585.41;5115744;27;19915;-51
2022/09/15 02:43:22;;;;;;;;;;;;;;;13.97;85.25;100580.16;5133775;27;19922;-51
2022/09/15 02:45:48;;;;;;;;;;;;;;;13.95;85.63;100582.97;5108132;27;20290;-50
2022/09/15 02:48:13;;;;;;;;;;;;;;;13.92;85.38;100588.56;5114957;27;20330;-48
2022/09/15 02:50:40;;;;;;;;;;;;;;;13.91;85.20;100586.84;5114649;27;20007;-47
2022/09/15 02:53:05;;;;;;;;;;;;;;;13.89;85.32;100588.81;5130669;27;19927;-51
2022/09/15 02:55:31;;;;;;;;;;;;;;;13.86;85.29;100589.91;5132982;27;20285;-49
2022/09/15 02:57:59;;;;;;;;;;;;;;;13.84;85.21;100583.00;5113627;27;19912;-52
2022/09/15 03:00:25;;;;;;;;;;;;;;;13.82;84.81;100588.47;5132816;27;19980;-49
2022/09/15 03:02:52;;;;;;;;;;;;;;;13.79;84.99;100593.19;5133251;27;19916;-51
2022/09/15 03:05:22;;;;;;;;;;;;;;;13.74;85.21;100593.59;5112082;27;19916;-51
2022/09/15 03:07:47;;;;;;;;;;;;;;;13.69;85.05;100593.09;5131587;27;19915;-48
2022/09/15 03:10:15;;;;;;;;;;;;;;;13.68;84.60;100598.56;5133163;27;20387;-47
2022/09/15 03:12:42;;;;;;;;;;;;;;;13.63;84.99;100596.25;5135140;27;19915;-48
2022/09/15 03:15:08;;;;;;;;;;;;;;;13.61;85.50;100592.84;5122406;27;19959;-49
2022/09/15 03:17:37;;;;;;;;;;;;;;;13.60;85.89;100594.69;5131937;27;19968;-48
2022/09/15 03:20:03;;;;;;;;;;;;;;;13.56;85.23;100597.72;5132632;27;20369;-47
2022/09/15 03:22:31;;;;;;;;;;;;;;;13.52;85.62;100604.28;5132703;27;20014;-49
2022/09/15 03:24:56;;;;;;;;;;;;;;;13.49;85.96;100607.19;5130185;27;19931;-49
2022/09/15 03:27:22;;;;;;;;;;;;;;;13.47;86.07;100611.81;5134839;27;20077;-49
2022/09/15 03:29:47;;;;;;;;;;;;;;;13.47;86.17;100602.00;5132491;27;20426;-50
2022/09/15 03:32:13;;;;;;;;;;;;;;;13.48;86.68;100603.69;5114576;27;20278;-48
2022/09/15 03:34:40;;;;;;;;;;;;;;;13.52;86.34;100612.28;5114519;27;19915;-48
2022/09/15 03:37:06;;;;;;;;;;;;;;;13.54;86.70;100607.69;5134104;27;20373;-50
2022/09/15 03:39:31;;;;;;;;;;;;;;;13.57;87.02;100610.13;5130417;27;19994;-48
2022/09/15 03:41:56;;;;;;;;;;;;;;;13.59;86.60;100618.88;5099712;28;20002;-47
2022/09/15 03:44:22;;;;;;;;;;;;;;;13.62;86.44;100618.63;5122873;27;19941;-50
2022/09/15 03:46:47;;;;;;;;;;;;;;;13.64;87.48;100620.19;5132669;27;20315;-50
2022/09/15 03:49:12;;;;;;;;;;;;;;;13.66;86.81;100616.56;5132506;27;19922;-48
2022/09/15 03:51:40;;;;;;;;;;;;;;;13.68;86.23;100618.13;5107334;28;20306;-51
2022/09/15 03:54:06;;;;;;;;;;;;;;;13.69;86.23;100611.81;5120469;27;19994;-49
2022/09/15 03:56:32;;;;;;;;;;;;;;;13.68;86.86;100618.13;5109651;27;20352;-51
2022/09/15 03:58:58;;;;;;;;;;;;;;;13.68;86.54;100617.25;5128731;27;19946;-52
2022/09/15 04:01:23;;;;;;;;;;;;;;;13.66;86.53;100619.22;5131464;27;20052;-50
2022/09/15 04:03:49;;;;;;;;;;;;;;;13.67;86.23;100615.56;5132390;27;20006;-50
2022/09/15 04:06:15;;;;;;;;;;;;;;;13.65;86.37;100618.38;5131755;27;20011;-50
2022/09/15 04:08:40;;;;;;;;;;;;;;;13.64;86.58;100611.31;5132356;27;20370;-52
2022/09/15 04:11:07;;;;;;;;;;;;;;;13.66;86.80;100616.56;5131931;27;19912;-50
2022/09/15 04:13:32;;;;;;;;;;;;;;;13.63;86.87;100609.63;5114640;27;19955;-49
2022/09/15 04:16:01;;;;;;;;;;;;;;;13.62;86.54;100606.09;5116391;27;20280;-50
2022/09/15 04:18:27;;;;;;;;;;;;;;;13.61;86.20;100609.72;5113091;27;20020;-48
2022/09/15 04:20:53;;;;;;;;;;;;;;;13.62;86.16;100614.13;5131890;27;19915;-50
2022/09/15 04:23:19;;;;;;;;;;;;;;;13.64;86.07;100614.00;5132610;27;19922;-48
2022/09/15 04:25:52;;;;;;;;;;;;;;;13.64;85.51;100619.34;5112909;27;20434;-49
2022/09/15 04:28:18;;;;;;;;;;;;;;;13.65;85.78;100610.38;5131623;27;19938;-48
2022/09/15 04:30:43;;;;;;;;;;;;;;;13.67;86.28;100618.25;5128984;27;20354;-48
2022/09/15 04:33:08;;;;;;;;;;;;;;;13.67;86.21;100613.75;5126589;27;19978;-49
2022/09/15 04:35:33;;;;;;;;;;;;;;;13.69;86.46;100614.47;5127888;27;19916;-48
2022/09/15 04:38:01;;;;;;;;;;;;;;;13.69;86.18;100611.81;5130422;27;19915;-48
2022/09/15 04:40:26;;;;;;;;;;;;;;;13.71;85.83;100612.53;5107669;28;19984;-48
2022/09/15 04:42:54;;;;;;;;;;;;;;;13.71;85.71;100612.53;5125530;27;20365;-48
2022/09/15 04:45:21;;;;;;;;;;;;;;;13.74;86.17;100622.16;5113448;27;19912;-49
2022/09/15 04:47:47;;;;;;;;;;;;;;;13.75;86.59;100619.34;5130887;27;20266;-50
2022/09/15 04:50:12;;;;;;;;;;;;;;;13.75;86.59;100619.34;5127214;27;20408;-46
2022/09/15 04:52:38;;;;;;;;;;;;;;;13.77;86.19;100620.06;5103458;28;19951;-47
2022/09/15 04:55:03;;;;;;;;;;;;;;;13.79;86.65;100623.44;5125868;27;20002;-48
2022/09/15 04:57:28;;;;;;;;;;;;;;;13.81;85.53;100623.34;5114814;27;19980;-47
2022/09/15 04:59:53;;;;;;;;;;;;;;;13.80;85.93;100624.31;5113608;28;20357;-46
2022/09/15 05:02:19;;;;;;;;;;;;;;;13.80;86.10;100624.31;5114786;27;20338;-48
2022/09/15 05:04:46;;;;;;;;;;;;;;;13.81;85.99;100621.50;5130461;27;19923;-48
2022/09/15 05:07:11;;;;;;;;;;;;;;;13.81;86.36;100618.84;5126415;28;19934;-48
2022/09/15 05:09:37;;;;;;;;;;;;;;;13.80;86.31;100614.47;5127120;28;20314;-51
2022/09/15 05:12:05;;;;;;;;;;;;;;;13.80;86.49;100611.81;5130768;28;20012;-50
2022/09/15 05:14:30;;;;;;;;;;;;;;;13.79;85.55;100618.09;5111750;28;19916;-49
2022/09/15 05:16:56;;;;;;;;;;;;;;;13.79;85.98;100612.75;5122011;28;19919;-50
2022/09/15 05:19:21;;;;;;;;;;;;;;;13.77;86.09;100605.84;5131363;28;19958;-49
2022/09/15 05:21:46;;;;;;;;;;;;;;;13.78;85.91;100608.38;5130681;28;19915;-48
2022/09/15 05:24:14;;;;;;;;;;;;;;;13.80;86.32;100613.63;5112337;28;20014;-50
2022/09/15 05:26:40;;;;;;;;;;;;;;;13.81;86.14;100609.97;5125001;28;19916;-51
2022/09/15 05:29:08;;;;;;;;;;;;;;;13.81;86.04;100618.84;5120041;28;19915;-48
2022/09/15 05:31:33;;;;;;;;;;;;;;;13.84;85.95;100615.06;5130240;28;19915;-49
2022/09/15 05:33:59;;;;;;;;;;;;;;;13.86;86.45;100619.31;5112270;28;19919;-50
2022/09/15 05:36:24;;;;;;;;;;;;;;;13.85;86.21;100622.97;5122294;28;20010;-51
2022/09/15 05:38:51;;;;;;;;;;;;;;;13.86;85.80;100630.00;5112511;28;20014;-49
2022/09/15 05:41:17;;;;;;;;;;;;;;;13.88;85.69;100631.72;5111193;28;19922;-52
2022/09/15 05:43:43;;;;;;;;;;;;;;;13.88;85.66;100637.91;5114873;28;19912;-51
2022/09/15 05:46:09;;;;;;;;;;;;;;;13.90;86.10;100632.44;5112004;28;19957;-48
2022/09/15 05:48:35;;;;;;;;;;;;;;;13.91;85.70;100637.66;5121315;28;20014;-48
2022/09/15 05:51:01;;;;;;;;;;;;;;;13.93;86.03;100642.88;5107816;28;19923;-51
2022/09/15 05:53:26;;;;;;;;;;;;;;;13.96;84.99;100640.81;5128594;28;19923;-46
2022/09/15 05:55:58;;;;;;;;;;;;;;;13.94;85.49;100650.81;5117349;28;20289;-47
2022/09/15 05:58:25;;;;;;;;;;;;;;;13.93;85.90;100650.91;5112187;27;20293;-48
2022/09/15 06:00:52;;;;;;;;;;;;;;;13.94;86.05;100653.47;5130338;27;20386;-48
2022/09/15 06:03:17;;;;;;;;;;;;;;;13.96;86.29;100653.34;5136256;27;19911;-49
2022/09/15 06:05:42;;;;;;;;;;;;;;;13.97;85.91;100644.34;5128640;27;19923;-51
2022/09/15 06:08:08;;;;;;;;;;;;;;;13.98;86.00;100651.41;5096881;28;19912;-50
2022/09/15 06:10:33;;;;;;;;;;;;;;;13.99;85.89;100655.75;5115893;28;19958;-47
2022/09/15 06:12:59;;;;;;;;;;;;;;;13.98;86.67;100657.59;5115306;28;20007;-49
2022/09/15 06:15:24;;;;;;;;;;;;;;;13.98;86.82;100660.25;5126114;27;20399;-47
2022/09/15 06:17:49;;;;;;;;;;;;;;;13.99;86.74;100664.63;5136107;27;19912;-50
2022/09/15 06:20:15;;;;;;;;;;;;;;;14.02;87.29;100666.22;5136188;27;19915;-48
2022/09/15 06:22:40;;;;;;;;;;;;;;;14.04;87.15;100673.13;5135430;27;19916;-47
2022/09/15 06:25:06;;;;;;;;;;;;;;;14.07;87.17;100669.38;5126025;27;19992;-48
2022/09/15 06:27:31;;;;;;;;;;;;;;;14.11;86.96;100675.31;5132082;27;20009;-49
2022/09/15 06:29:57;;;;;;;;;;;;;;;14.17;86.87;100680.16;5111048;27;20286;-48
2022/09/15 06:32:22;;;;;;;;;;;;;;;14.20;87.09;100674.56;5134090;27;20014;-49
2022/09/15 06:34:47;;;;;;;;;;;;;;;14.22;86.70;100681.50;5135152;27;19916;-48
2022/09/15 06:37:13;;;;;;;;;;;;;;;14.27;87.37;100681.97;5116823;27;19919;-48
2022/09/15 06:39:38;;;;;;;;;;;;;;;14.34;87.20;100681.47;5133138;27;20373;-49
2022/09/15 06:42:06;;;;;;;;;;;;;;;14.37;87.65;100692.78;5116490;27;19919;-48
2022/09/15 06:44:34;;;;;;;;;;;;;;;14.39;87.57;100687.31;5130566;27;19916;-47
2022/09/15 06:46:59;;;;;;;;;;;;;;;14.39;87.68;100695.34;5114745;28;20280;-50
2022/09/15 06:49:25;;;;;;;;;;;;;;;14.39;87.57;100690.00;5096654;28;19931;-48
2022/09/15 06:51:50;;;;;;;;;;;;;;;14.41;87.67;100688.03;5114343;28;19919;-48
2022/09/15 06:54:16;;;;;;;;;;;;;;;14.43;88.02;100697.63;5122765;27;20357;-48
2022/09/15 06:56:41;;;;;;;;;;;;;;;14.44;87.71;100698.47;5116409;27;19915;-52
2022/09/15 06:59:08;;;;;;;;;;;;;;;14.47;88.04;100703.56;5116633;27;20396;-47
2022/09/15 07:01:34;;;;;;;;;;;;;;;14.49;88.10;100701.63;5135293;27;19912;-50
2022/09/15 07:03:59;;;;;;;;;;;;;;;14.52;87.95;100707.59;5133577;27;19918;-49
2022/09/15 07:06:28;;;;;;;;;;;;;;;14.57;87.69;100709.06;5134669;27;20440;-48
2022/09/15 07:08:54;;;;;;;;;;;;;;;14.62;88.08;100713.06;5134750;27;19911;-51
2022/09/15 07:11:19;;;;;;;;;;;;;;;14.68;88.44;100714.41;5134785;27;20003;-48
2022/09/15 07:13:46;;;;;;;;;;;;;;;14.74;88.55;100716.56;5131676;27;20377;-48
2022/09/15 07:16:11;;;;;;;;;;;;;;;14.80;88.08;100723.25;5126051;27;19911;-50
2022/09/15 07:18:37;;;;;;;;;;;;;;;14.85;89.58;100723.69;5134874;27;19915;-51
2022/09/15 07:21:04;;;;;;;;;;;;;;;14.87;88.68;100730.63;5134658;27;20014;-48
2022/09/15 07:23:30;;;;;;;;;;;;;;;14.92;89.32;100728.41;5116481;27;19915;-48
2022/09/15 07:26:04;;;;;;;;;;;;;;;14.98;88.79;100729.75;5128113;27;19915;-49
2022/09/15 07:28:30;;;;;;;;;;;;;;;15.05;88.98;100727.38;5114106;28;19920;-47
2022/09/15 07:30:55;;;;;;;;;;;;;;;15.11;88.82;100724.19;5114104;28;19916;-49
2022/09/15 07:33:20;;;;;;;;;;;;;;;15.17;87.93;100726.34;5118340;27;20318;-47
2022/09/15 07:35:45;;;;;;;;;;;;;;;15.21;88.54;100730.50;5134608;27;19915;-49
2022/09/15 07:38:10;;;;;;;;;;;;;;;15.22;88.96;100730.34;5134021;27;19927;-49
2022/09/15 07:40:37;;;;;;;;;;;;;;;15.26;89.63;100732.75;5134384;27;19947;-47
2022/09/15 07:43:03;;;;;;;;;;;;;;;15.24;88.47;100735.59;5115813;27;19918;-49
2022/09/15 07:45:29;;;;;;;;;;;;;;;15.26;87.70;100733.59;5132559;27;19912;-49
2022/09/15 07:47:54;;;;;;;;;;;;;;;15.31;88.62;100739.44;5115578;27;19922;-50
2022/09/15 07:50:19;;;;;;;;;;;;;;;15.32;87.95;100733.09;5134120;27;19958;-48
2022/09/15 07:52:45;;;;;;;;;;;;;;;15.35;88.10;100737.34;5113554;27;19940;-48
2022/09/15 07:55:10;;;;;;;;;;;;;;;15.36;87.99;100737.22;5113222;28;19916;-47
2022/09/15 07:57:35;;;;;;;;;;;;;;;15.41;88.29;100747.53;5094925;28;19916;-52
2022/09/15 08:00:01;;;;;;;;;;;;;;;15.43;88.41;100745.59;5078459;28;19935;-50
2022/09/15 08:02:26;;;;;;;;;;;;;;;15.44;88.76;100750.81;5113505;28;19918;-52
2022/09/15 08:04:52;;;;;;;;;;;;;;;15.45;88.40;100749.84;5122046;27;19916;-52
2022/09/15 08:07:17;;;;;;;;;;;;;;;15.53;88.71;100746.50;5111613;28;19916;-50
2022/09/15 08:09:42;;;;;;;;;;;;;;;15.59;88.45;100751.34;5094895;28;19955;-51
2022/09/15 08:12:08;;;;;;;;;;;;;;;15.64;88.84;100753.63;5113126;28;19919;-47
2022/09/15 08:14:33;;;;;;;;;;;;;;;15.67;88.83;100751.53;5132474;27;20393;-49
2022/09/15 08:17:03;;;;;;;;;;;;;;;15.70;88.80;100753.13;5133608;27;19911;-52
2022/09/15 08:19:32;;;;;;;;;;;;;;;15.71;88.66;100757.53;5132984;27;19915;-47
2022/09/15 08:21:57;;;;;;;;;;;;;;;15.72;88.26;100761.03;5133204;27;19956;-52
2022/09/15 08:24:23;;;;;;;;;;;;;;;15.73;87.94;100758.22;5100109;28;20433;-48
2022/09/15 08:26:51;;;;;;;;;;;;;;;15.77;88.17;100764.19;5112835;28;19916;-50
2022/09/15 08:29:17;;;;;;;;;;;;;;;15.82;88.36;100764.63;5113092;28;19918;-49
2022/09/15 08:31:43;;;;;;;;;;;;;;;15.88;87.90;100769.44;5112848;28;19911;-48
2022/09/15 08:34:10;;;;;;;;;;;;;;;15.91;88.26;100774.53;5128430;27;19938;-48
2022/09/15 08:36:35;;;;;;;;;;;;;;;15.87;88.06;100786.53;5114623;27;19926;-48
2022/09/15 08:39:04;;;;;;;;;;;;;;;15.83;87.69;100775.22;5132868;27;19916;-50
2022/09/15 08:41:32;;;;;;;;;;;;;;;15.82;87.46;100780.72;5114767;27;19973;-49
2022/09/15 08:44:22;;;;;;;;;;;;;;;15.81;88.49;100782.56;5113052;27;19918;-48
2022/09/15 08:46:47;;;;;;;;;;;;;;;15.82;88.06;100786.06;5133078;27;20377;-50
2022/09/15 08:49:24;;;;;;;;;;;;;;;15.82;87.12;100784.22;5133229;27;19919;-48
2022/09/15 08:51:51;;;;;;;;;;;;;;;15.81;87.36;100787.91;5131940;27;19911;-49
2022/09/15 08:54:25;;;;;;;;;;;;;;;15.85;87.85;100791.16;5094131;28;20412;-48
2022/09/15 08:56:51;;;;;;;;;;;;;;;15.83;87.13;100787.78;5112600;28;20380;-48
2022/09/15 08:59:17;;;;;;;;;;;;;;;15.84;87.68;100790.31;5112355;28;19923;-47
2022/09/15 09:02:11;;;;;;;;;;;;;;;15.86;87.79;100793.75;5112518;28;19965;-47
2022/09/15 09:04:42;;;;;;;;;;;;;;;15.92;86.74;100799.56;5111440;28;19974;-49
2022/09/15 09:07:34;;;;;;;;;;;;;;;15.95;87.02;100800.16;5111609;28;20342;-51
2022/09/15 09:09:59;;;;;;;;;;;;;;;16.01;86.80;100810.34;5096063;28;19926;-48
2022/09/15 09:12:24;;;;;;;;;;;;;;;16.05;86.81;100814.44;5119127;28;20025;-49
2022/09/15 09:14:59;;;;;;;;;;;;;;;16.10;87.51;100816.75;5127323;28;19963;-50
2022/09/15 09:17:43;;;;;;;;;;;;;;;16.16;87.03;100816.19;5132925;28;20002;-49
2022/09/15 09:20:08;;;;;;;;;;;;;;;16.26;86.99;100814.41;5114104;28;19919;-50
2022/09/15 09:22:38;;;;;;;;;;;;;;;16.38;87.35;100809.78;5132568;28;20259;-49
2022/09/15 09:25:04;;;;;;;;;;;;;;;16.46;86.43;100820.72;5113433;28;20281;-49
2022/09/15 09:27:32;;;;;;;;;;;;;;;16.55;86.71;100817.19;5112392;28;19927;-48
2022/09/15 09:30:06;;;;;;;;;;;;;;;16.63;85.98;100810.31;5093967;28;20294;-48
2022/09/15 09:32:37;;;;;;;;;;;;;;;16.68;86.27;100811.59;5117279;27;19943;-47
2022/09/15 09:35:07;;;;;;;;;;;;;;;16.70;85.05;100808.78;5121202;27;19915;-50
2022/09/15 09:37:33;;;;;;;;;;;;;;;16.68;84.75;100811.59;5136501;27;19920;-49
2022/09/15 09:40:01;;;;;;;;;;;;;;;16.72;84.93;100818.41;5118193;27;19916;-49
2022/09/15 09:42:30;;;;;;;;;;;;;;;16.74;84.80;100821.81;5136636;27;19938;-47
2022/09/15 09:44:56;;;;;;;;;;;;;;;16.69;84.02;100824.03;5096862;27;19916;-51
2022/09/15 09:47:26;;;;;;;;;;;;;;;16.66;84.07;100816.25;5116707;27;20013;-50
2022/09/15 09:49:51;;;;;;;;;;;;;;;16.63;84.01;100815.69;5115814;28;19911;-49
2022/09/15 09:52:38;;;;;;;;;;;;;;;16.57;84.43;100815.25;5124822;27;19922;-47
2022/09/15 09:55:19;;;;;;;;;;;;;;;16.53;84.65;100819.19;5136756;27;19958;-49
2022/09/15 09:57:44;;;;;;;;;;;;;;;16.46;84.54;100818.03;5127592;27;19919;-51
2022/09/15 10:00:28;;;;;;;;;;;;;;;16.42;84.86;100816.59;5120859;27;20282;-50
2022/09/15 10:02:53;;;;;;;;;;;;;;;16.37;84.79;100813.47;5115919;28;19919;-48
2022/09/15 10:05:19;;;;;;;;;;;;;;;16.31;84.79;100809.50;5115640;28;19993;-48
2022/09/15 10:07:45;;;;;;;;;;;;;;;16.28;84.50;100817.81;5115201;28;19915;-48
2022/09/15 10:10:20;;;;;;;;;;;;;;;16.27;84.70;100821.50;5116773;27;20362;-48
2022/09/15 10:12:46;;;;;;;;;;;;;;;16.24;84.84;100816.38;5097197;28;19959;-47
2022/09/15 10:15:23;;;;;;;;;;;;;;;16.19;84.56;100823.16;5115762;28;19955;-50
2022/09/15 10:17:48;;;;;;;;;;;;;;;16.13;84.57;100822.69;5097141;28;19912;-47
2022/09/15 10:20:20;;;;;;;;;;;;;;;16.12;84.83;100826.34;5103946;27;19943;-48
2022/09/15 10:22:45;;;;;;;;;;;;;;;16.08;84.64;100829.44;5135603;27;20289;-49
2022/09/15 10:25:19;;;;;;;;;;;;;;;16.04;84.88;100831.53;5136139;27;19911;-52
2022/09/15 10:28:00;;;;;;;;;;;;;;;16.03;84.71;100827.16;5135753;27;19912;-50
2022/09/15 10:30:26;;;;;;;;;;;;;;;16.02;85.11;100824.59;5119962;27;19920;-52
2022/09/15 10:32:51;;;;;;;;;;;;;;;16.05;85.41;100824.34;5114868;28;20392;-50
2022/09/15 10:35:17;;;;;;;;;;;;;;;16.06;84.53;100824.22;5115386;28;19912;-50
2022/09/15 10:37:58;;;;;;;;;;;;;;;16.04;84.36;100818.13;5114612;28;20370;-51
2022/09/15 10:40:35;;;;;;;;;;;;;;;16.06;84.29;100818.84;5116034;27;19996;-48
2022/09/15 10:43:19;;;;;;;;;;;;;;;16.13;83.79;100824.53;5114055;28;19990;-48
2022/09/15 10:45:49;;;;;;;;;;;;;;;16.17;84.28;100825.94;5114949;28;19916;-48
2022/09/15 10:48:30;;;;;;;;;;;;;;;16.24;83.68;100831.66;5114490;28;19915;-48
2022/09/15 10:51:14;;;;;;;;;;;;;;;16.29;83.83;100832.06;5094405;28;20268;-48
2022/09/15 10:54:07;;;;;;;;;;;;;;;16.40;83.89;100837.34;5094519;28;19916;-47
2022/09/15 10:56:35;;;;;;;;;;;;;;;16.61;84.08;100839.97;5094458;28;20362;-48
2022/09/15 10:59:19;;;;;;;;;;;;;;;16.73;83.55;100838.88;5097499;27;19935;-49
2022/09/15 11:01:53;;;;;;;;;;;;;;;16.73;83.52;100843.41;5116135;27;19919;-48
2022/09/15 11:04:36;;;;;;;;;;;;;;;16.78;83.13;100847.41;5117897;27;19912;-48
2022/09/15 11:07:07;;;;;;;;;;;;;;;16.79;81.93;100837.53;5113324;27;19968;-47
2022/09/15 11:09:33;;;;;;;;;;;;;;;16.93;82.16;100839.81;5117653;27;20011;-48
2022/09/15 11:12:17;;;;;;;;;;;;;;;17.15;81.09;100848.66;5132320;27;19915;-52
2022/09/15 11:14:43;;;;;;;;;;;;;;;17.31;79.35;100846.25;5126814;27;20591;-50
2022/09/15 11:17:19;;;;;;;;;;;;;;;17.45;79.69;100840.44;5134606;27;19925;-50
2022/09/15 11:19:48;;;;;;;;;;;;;;;17.56;77.78;100846.66;5113983;27;19923;-51
2022/09/15 11:22:18;;;;;;;;;;;;;;;17.59;78.45;100849.06;5134461;27;19987;-51
2022/09/15 11:24:49;;;;;;;;;;;;;;;17.72;77.16;100846.94;5123185;27;19956;-49
2022/09/15 11:27:18;;;;;;;;;;;;;;;17.69;77.35;100847.25;5098621;28;20396;-48
2022/09/15 11:29:46;;;;;;;;;;;;;;;17.66;77.20;100845.69;5113968;28;19973;-49
2022/09/15 11:32:20;;;;;;;;;;;;;;;17.84;76.57;100840.44;5094820;27;19973;-52
2022/09/15 11:34:53;;;;;;;;;;;;;;;18.19;76.71;100846.19;5129890;27;19972;-51
2022/09/15 11:37:37;;;;;;;;;;;;;;;18.86;74.10;100844.25;5127907;27;19916;-50
2022/09/15 11:40:12;;;;;;;;;;;;;;;18.99;69.24;100850.09;5111607;28;19926;-48
2022/09/15 11:42:51;;;;;;;;;;;;;;;18.70;70.71;100848.38;5113577;28;19963;-49
2022/09/15 11:48:19;;;;;;;;;;;;;;;18.39;73.54;100845.13;5097560;28;19923;-48
2022/09/15 11:50:45;;;;;;;;;;;;;;;18.36;72.11;100853.50;5113438;28;19911;-51
2022/09/15 11:53:16;;;;;;;;;;;;;;;18.39;71.42;100854.06;5112947;28;19922;-48
2022/09/15 11:55:46;;;;;;;;;;;;;;;18.41;71.70;100845.81;5115422;27;20007;-50
2022/09/15 11:58:30;;;;;;;;;;;;;;;18.46;65.26;100861.53;5124170;27;19922;-52
2022/09/15 12:01:11;;;;;;;;;;;;;;;18.36;66.42;100851.66;5107088;28;20398;-50
2022/09/15 12:03:55;;;;;;;;;;;;;;;18.28;65.25;100850.69;5114297;28;20384;-50
2022/09/15 12:06:26;;;;;;;;;;;;;;;18.27;66.96;100840.94;5127091;27;19919;-48
2022/09/15 12:08:59;;;;;;;;;;;;;;;18.42;64.29;100844.00;5116333;27;19920;-49
2022/09/15 12:11:26;;;;;;;;;;;;;;;18.34;65.45;100845.56;5124972;27;19947;-48
2022/09/15 12:13:53;;;;;;;;;;;;;;;18.36;67.57;100834.66;5113748;27;19970;-50
2022/09/15 12:16:19;;;;;;;;;;;;;;;18.50;67.91;100826.09;5102146;28;19961;-48
2022/09/15 12:18:49;;;;;;;;;;;;;;;18.93;67.75;100827.28;5122681;27;20071;-50
2022/09/15 12:21:26;;;;;;;;;;;;;;;19.00;66.97;100831.09;5111943;28;20407;-48
2022/09/15 12:24:01;;;;;;;;;;;;;;;19.04;66.78;100818.16;5094135;28;20017;-49
2022/09/15 12:26:27;;;;;;;;;;;;;;;19.67;67.36;100819.94;5112559;28;19947;-49
2022/09/15 12:28:53;;;;;;;;;;;;;;;20.83;65.64;100818.59;5113339;28;19924;-47
2022/09/15 12:31:22;;;;;;;;;;;;;;;21.98;62.28;100833.09;5117463;27;19955;-50
2022/09/15 12:34:00;;;;;;;;;;;;;;;22.48;59.63;100828.41;5119164;27;19915;-49
2022/09/15 12:36:35;;;;;;;;;;;;;;;21.95;58.39;100806.34;5104412;27;19923;-50
2022/09/15 12:39:02;;;;;;;;;;;;;;;21.87;58.40;100833.44;5095032;28;20287;-49
2022/09/15 12:41:27;;;;;;;;;;;;;;;22.31;61.10;100822.19;5122591;27;19957;-51
2022/09/15 12:44:01;;;;;;;;;;;;;;;22.37;57.44;100829.63;5117814;27;19942;-52
2022/09/15 12:46:26;;;;;;;;;;;;;;;22.43;56.79;100831.63;5093452;28;19915;-50
2022/09/15 12:48:58;;;;;;;;;;;;;;;22.39;57.70;100830.31;5113761;27;19940;-52